createdAt,value
2023-04-22T00:00:38.993Z,1.40
2023-04-22T00:03:08.631Z,1.75
2023-04-22T00:05:38.130Z,1.83
2023-04-22T00:08:07.185Z,1.58
2023-04-22T00:10:36.232Z,1.45
2023-04-22T00:13:05.218Z,1.40
2023-04-22T00:15:34.449Z,1.65
2023-04-22T00:18:05.193Z,1.52
2023-04-22T00:20:34.260Z,1.42
2023-04-22T00:23:03.424Z,1.45
2023-04-22T00:25:32.600Z,1.42
2023-04-22T00:28:01.669Z,1.33
2023-04-22T00:30:30.647Z,1.45
2023-04-22T00:33:00.879Z,1.33
2023-04-22T00:35:31.616Z,1.45
2023-04-22T00:38:01.286Z,1.55
2023-04-22T00:40:30.433Z,1.63
2023-04-22T00:43:00.999Z,1.80
2023-04-22T00:45:31.794Z,1.65
2023-04-22T00:48:01.835Z,1.88
2023-04-22T00:50:32.504Z,1.60
2023-04-22T00:53:01.487Z,1.98
2023-04-22T00:55:30.594Z,1.60
2023-04-22T00:58:01.998Z,1.58
2023-04-22T01:00:31.667Z,1.52
2023-04-22T01:03:01.031Z,1.40
2023-04-22T01:05:34.399Z,1.83
2023-04-22T01:08:04.082Z,1.40
2023-04-22T01:10:33.194Z,1.42
2023-04-22T01:13:02.324Z,1.48
2023-04-22T01:15:31.462Z,1.50
2023-04-22T01:18:02.067Z,1.58
2023-04-22T01:20:32.160Z,1.60
2023-04-22T01:23:04.460Z,1.45
2023-04-22T01:25:35.016Z,1.98
2023-04-22T01:28:04.449Z,1.90
2023-04-22T01:30:34.282Z,1.58
2023-04-22T01:33:03.753Z,1.40
2023-04-22T01:35:37.096Z,1.77
2023-04-22T01:38:07.148Z,1.52
2023-04-22T01:40:38.808Z,1.65
2023-04-22T01:43:08.545Z,1.40
2023-04-22T01:45:38.317Z,1.70
2023-04-22T01:48:08.216Z,1.33
2023-04-22T01:50:37.271Z,2.25
2023-04-22T01:53:08.880Z,1.60
2023-04-22T01:55:39.972Z,1.52
2023-04-22T01:58:08.966Z,1.73
2023-04-22T02:00:37.971Z,1.35
2023-04-22T02:03:07.567Z,1.90
2023-04-22T02:05:36.771Z,1.73
2023-04-22T02:08:06.101Z,1.38
2023-04-22T02:10:35.039Z,1.80
2023-04-22T02:13:05.990Z,1.52
2023-04-22T02:15:35.038Z,1.90
2023-04-22T02:18:04.034Z,1.30
2023-04-22T02:20:33.095Z,1.40
2023-04-22T02:23:02.058Z,1.50
2023-04-22T02:25:32.237Z,1.25
2023-04-22T02:28:01.352Z,1.58
2023-04-22T02:30:31.896Z,1.23
2023-04-22T02:33:01.541Z,2.03
2023-04-22T02:35:30.736Z,1.30
2023-04-22T02:37:59.666Z,1.65
2023-04-22T02:40:29.022Z,1.50
2023-04-22T02:42:58.127Z,1.70
2023-04-22T02:45:27.195Z,1.40
2023-04-22T02:47:59.205Z,1.48
2023-04-22T02:50:28.294Z,1.90
2023-04-22T02:52:57.443Z,1.55
2023-04-22T02:55:26.432Z,1.70
2023-04-22T02:57:55.388Z,1.20
2023-04-22T03:00:24.352Z,1.90
2023-04-22T03:02:56.056Z,1.50
2023-04-22T03:05:33.293Z,1.77
2023-04-22T03:08:03.703Z,1.77
2023-04-22T03:10:33.500Z,1.38
2023-04-22T03:13:03.315Z,1.40
2023-04-22T03:15:32.412Z,1.35
2023-04-22T03:18:02.044Z,1.35
2023-04-22T03:20:32.869Z,1.27
2023-04-22T03:23:01.928Z,1.58
2023-04-22T03:25:31.038Z,1.70
2023-04-22T03:28:00.197Z,1.50
2023-04-22T03:30:29.209Z,1.60
2023-04-22T03:32:59.269Z,1.60
2023-04-22T03:35:38.462Z,1.45
2023-04-22T03:38:07.988Z,1.45
2023-04-22T03:40:39.462Z,1.95
2023-04-22T03:43:19.740Z,2.08
2023-04-22T03:46:00.774Z,1.63
2023-04-22T03:48:35.599Z,1.65
2023-04-22T03:51:10.326Z,1.70
2023-04-22T03:53:40.950Z,1.58
2023-04-22T03:56:12.318Z,1.50
2023-04-22T03:58:46.486Z,1.70
2023-04-22T04:01:15.956Z,1.80
2023-04-22T04:03:49.185Z,1.65
2023-04-22T04:06:21.849Z,1.92
2023-04-22T04:08:51.010Z,1.50
2023-04-22T04:11:20.391Z,1.85
2023-04-22T04:13:50.063Z,1.85
2023-04-22T04:16:23.396Z,1.60
2023-04-22T04:18:58.736Z,1.55
2023-04-22T04:21:33.619Z,1.85
2023-04-22T04:24:04.382Z,1.70
2023-04-22T04:29:21.732Z,1.75
2023-04-22T04:32:04.935Z,1.50
2023-04-22T04:34:52.879Z,1.75
2023-04-22T04:37:25.597Z,1.58
2023-04-22T04:40:03.434Z,1.75
2023-04-22T04:43:03.590Z,1.35
2023-04-22T04:45:39.263Z,1.40
2023-04-22T04:48:09.684Z,1.30
2023-04-22T04:50:50.480Z,1.55
2023-04-22T04:53:23.415Z,1.45
2023-04-22T04:55:52.647Z,1.50
2023-04-22T04:58:27.867Z,1.00
2023-04-22T05:01:11.294Z,1.40
2023-04-22T05:03:40.767Z,1.30
2023-04-22T05:06:10.743Z,1.20
2023-04-22T05:08:43.495Z,1.23
2023-04-22T05:11:12.992Z,1.00
2023-04-22T05:13:43.647Z,1.67
2023-04-22T05:16:18.046Z,1.27
2023-04-22T05:18:47.039Z,1.00
2023-04-22T05:21:17.699Z,1.10
2023-04-22T05:23:49.343Z,1.23
2023-04-22T05:26:18.689Z,1.02
2023-04-22T05:28:50.362Z,0.80
2023-04-22T05:31:21.061Z,1.00
2023-04-22T05:33:50.101Z,1.00
2023-04-22T05:36:19.589Z,1.10
2023-04-22T05:38:51.666Z,1.23
2023-04-22T05:41:21.403Z,0.85
2023-04-22T05:43:50.407Z,1.10
2023-04-22T05:46:22.158Z,0.90
2023-04-22T05:48:52.171Z,0.80
2023-04-22T05:51:47.649Z,1.13
2023-04-22T05:54:21.443Z,1.00
2023-04-22T05:56:50.715Z,0.82
2023-04-22T05:59:21.694Z,0.95
2023-04-22T06:01:51.647Z,1.35
2023-04-22T06:04:22.743Z,1.35
2023-04-22T06:06:53.897Z,0.80
2023-04-22T06:09:24.413Z,0.73
2023-04-22T06:11:53.415Z,1.02
2023-04-22T06:14:41.035Z,0.93
2023-04-22T06:17:28.536Z,0.90
2023-04-22T06:19:58.819Z,1.10
2023-04-22T06:22:27.785Z,1.13
2023-04-22T06:24:58.235Z,0.82
2023-04-22T06:27:27.362Z,0.90
2023-04-22T06:29:56.553Z,0.70
2023-04-22T06:32:25.512Z,0.70
2023-04-22T06:34:54.486Z,0.77
2023-04-22T06:37:23.529Z,1.17
2023-04-22T06:39:52.665Z,0.90
2023-04-22T06:42:34.795Z,0.93
2023-04-22T06:45:22.191Z,0.70
2023-04-22T06:48:11.371Z,0.73
2023-04-22T06:51:06.613Z,0.70
2023-04-22T06:53:35.742Z,0.52
2023-04-22T06:56:05.665Z,0.70
2023-04-22T06:58:36.008Z,0.70
2023-04-22T07:01:05.181Z,0.82
2023-04-22T07:03:52.652Z,0.68
2023-04-22T07:06:40.856Z,0.70
2023-04-22T07:09:10.114Z,0.77
2023-04-22T07:11:40.476Z,0.70
2023-04-22T07:14:37.005Z,0.50
2023-04-22T07:17:05.941Z,0.80
2023-04-22T07:19:35.403Z,0.95
2023-04-22T07:22:41.866Z,0.80
2023-04-22T07:25:11.622Z,0.77
2023-04-22T07:27:40.890Z,0.57
2023-04-22T07:30:13.920Z,0.68
2023-04-22T07:32:43.159Z,0.63
2023-04-22T07:35:12.151Z,1.20
2023-04-22T07:37:41.857Z,0.95
2023-04-22T07:40:14.134Z,1.00
2023-04-22T07:42:43.759Z,0.98
2023-04-22T07:45:14.372Z,0.60
2023-04-22T07:47:43.866Z,0.60
2023-04-22T07:50:13.116Z,0.60
2023-04-22T07:52:42.406Z,0.90
2023-04-22T07:55:11.925Z,0.90
2023-04-22T07:57:41.013Z,0.82
2023-04-22T08:00:11.408Z,0.98
2023-04-22T08:02:46.682Z,0.60
2023-04-22T08:05:16.177Z,0.60
2023-04-22T08:07:45.542Z,0.60
2023-04-22T08:10:14.558Z,0.88
2023-04-22T08:12:44.193Z,0.60
2023-04-22T08:15:13.968Z,0.63
2023-04-22T08:17:44.813Z,0.73
2023-04-22T08:20:15.598Z,0.73
2023-04-22T08:22:45.067Z,0.80
2023-04-22T08:25:14.316Z,0.70
2023-04-22T08:27:43.310Z,0.60
2023-04-22T08:30:12.859Z,0.80
2023-04-22T08:32:41.898Z,0.60
2023-04-22T08:35:12.679Z,0.60
2023-04-22T08:37:42.219Z,0.73
2023-04-22T08:40:11.741Z,0.88
2023-04-22T08:42:41.650Z,0.88
2023-04-22T08:45:12.132Z,0.88
2023-04-22T08:47:41.916Z,0.95
2023-04-22T08:50:12.983Z,0.80
2023-04-22T08:52:43.666Z,0.77
2023-04-22T08:55:12.804Z,0.80
2023-04-22T08:57:42.962Z,0.85
2023-04-22T09:00:13.560Z,0.70
2023-04-22T09:02:46.098Z,0.52
2023-04-22T09:05:17.317Z,0.80
2023-04-22T09:07:46.650Z,1.13
2023-04-22T09:10:16.093Z,0.80
2023-04-22T09:12:45.455Z,0.85
2023-04-22T09:15:14.732Z,1.10
2023-04-22T09:17:44.181Z,0.70
2023-04-22T09:20:15.958Z,0.65
2023-04-22T09:22:48.760Z,1.30
2023-04-22T09:25:19.386Z,1.00
2023-04-22T09:27:51.638Z,0.90
2023-04-22T09:30:25.753Z,0.80
2023-04-22T09:32:56.141Z,0.77
2023-04-22T09:35:28.508Z,1.17
2023-04-22T09:37:59.864Z,0.85
2023-04-22T09:40:30.230Z,1.08
2023-04-22T09:43:02.343Z,0.80
2023-04-22T09:45:33.068Z,0.80
2023-04-22T09:48:07.538Z,0.77
2023-04-22T09:50:37.559Z,0.80
2023-04-22T09:53:11.023Z,0.80
2023-04-22T09:55:42.616Z,0.75
2023-04-22T09:58:12.882Z,0.82
2023-04-22T10:00:44.967Z,0.80
2023-04-22T10:03:14.789Z,1.02
2023-04-22T10:05:48.149Z,0.98
2023-04-22T10:08:18.983Z,1.10
2023-04-22T10:10:48.274Z,1.50
2023-04-22T10:13:17.683Z,1.10
2023-04-22T10:15:51.787Z,0.93
2023-04-22T10:18:24.492Z,0.93
2023-04-22T10:21:12.498Z,0.75
2023-04-22T10:23:47.764Z,0.90
2023-04-22T10:26:41.443Z,0.70
2023-04-22T10:29:16.850Z,0.63
2023-04-22T10:31:46.601Z,0.93
2023-04-22T10:34:16.504Z,0.90
2023-04-22T10:37:01.622Z,0.73
2023-04-22T10:39:32.701Z,0.80
2023-04-22T10:42:13.209Z,0.80
2023-04-22T10:44:50.869Z,0.70
2023-04-22T10:47:27.755Z,0.80
2023-04-22T10:50:18.756Z,0.70
2023-04-22T10:52:50.965Z,0.60
2023-04-22T10:55:21.902Z,0.77
2023-04-22T10:57:52.593Z,0.60
2023-04-22T11:00:31.036Z,0.93
2023-04-22T11:03:13.989Z,0.80
2023-04-22T11:05:43.834Z,0.80
2023-04-22T11:08:23.202Z,0.55
2023-04-22T11:10:55.455Z,0.93
2023-04-22T11:13:24.671Z,1.20
2023-04-22T11:15:56.914Z,0.95
2023-04-22T11:18:27.788Z,1.08
2023-04-22T11:20:58.176Z,0.98
2023-04-22T11:23:29.758Z,1.80
2023-04-22T11:26:02.151Z,1.15
2023-04-22T11:28:31.754Z,0.95
2023-04-22T11:31:05.299Z,0.80
2023-04-22T11:33:35.151Z,0.80
2023-04-22T11:36:04.337Z,0.93
2023-04-22T11:38:33.351Z,1.00
2023-04-22T11:41:05.139Z,0.93
2023-04-22T11:43:34.160Z,0.90
2023-04-22T11:46:05.122Z,0.60
2023-04-22T11:48:34.275Z,0.90
2023-04-22T11:51:11.651Z,0.65
2023-04-22T11:53:41.437Z,0.52
2023-04-22T11:56:11.816Z,0.65
2023-04-22T11:58:42.364Z,0.77
2023-04-22T12:01:15.180Z,0.77
2023-04-22T12:03:44.433Z,0.70
2023-04-22T12:06:13.883Z,0.90
2023-04-22T12:08:45.069Z,0.70
2023-04-22T12:11:15.778Z,0.98
2023-04-22T12:13:46.928Z,0.70
2023-04-22T12:16:18.755Z,0.70
2023-04-22T12:18:51.603Z,1.10
2023-04-22T12:21:23.840Z,1.20
2023-04-22T12:23:54.797Z,1.00
2023-04-22T12:26:27.724Z,0.90
2023-04-22T12:28:59.942Z,0.90
2023-04-22T12:31:29.499Z,0.93
2023-04-22T12:34:00.076Z,0.90
2023-04-22T12:36:29.351Z,0.80
2023-04-22T12:38:58.617Z,0.90
2023-04-22T12:41:29.071Z,1.35
2023-04-22T12:43:58.005Z,1.77
2023-04-22T12:46:27.020Z,1.45
2023-04-22T12:48:56.124Z,0.73
2023-04-22T12:51:25.161Z,1.10
2023-04-22T12:53:54.204Z,1.10
2023-04-22T12:56:23.323Z,1.83
2023-04-22T12:58:53.809Z,0.98
2023-04-22T13:01:23.990Z,1.00
2023-04-22T13:03:53.495Z,0.90
2023-04-22T13:06:22.806Z,0.85
2023-04-22T13:08:51.818Z,1.40
2023-04-22T13:11:20.980Z,0.93
2023-04-22T13:13:50.024Z,0.82
2023-04-22T13:16:21.349Z,1.10
2023-04-22T13:19:15.843Z,1.08
2023-04-22T13:22:02.381Z,1.63
2023-04-22T13:24:31.646Z,1.08
2023-04-22T13:27:01.588Z,0.90
2023-04-22T13:29:30.736Z,0.90
2023-04-22T13:32:01.460Z,1.25
2023-04-22T13:34:30.516Z,1.00
2023-04-22T13:37:00.805Z,1.00
2023-04-22T13:39:29.927Z,1.00
2023-04-22T13:42:03.460Z,1.40
2023-04-22T13:44:33.029Z,1.10
2023-04-22T13:47:03.581Z,1.10
2023-04-22T13:49:32.634Z,1.23
2023-04-22T13:52:01.770Z,1.10
2023-04-22T13:54:48.161Z,1.10
2023-04-22T13:57:17.356Z,1.40
2023-04-22T13:59:46.402Z,1.10
2023-04-22T14:02:16.806Z,1.38
2023-04-22T14:04:45.991Z,1.20
2023-04-22T14:07:15.037Z,1.60
2023-04-22T14:09:44.007Z,1.30
2023-04-22T14:12:13.567Z,1.00
2023-04-22T14:14:42.617Z,1.33
2023-04-22T14:17:11.690Z,0.95
2023-04-22T14:19:42.542Z,1.02
2023-04-22T14:22:11.829Z,0.88
2023-04-22T14:24:40.820Z,1.05
2023-04-22T14:27:12.327Z,0.98
2023-04-22T14:30:00.435Z,0.90
2023-04-22T14:32:29.710Z,1.40
2023-04-22T14:35:00.229Z,1.40
2023-04-22T14:37:29.536Z,1.38
2023-04-22T14:39:58.699Z,1.50
2023-04-22T14:42:28.461Z,1.05
2023-04-22T14:44:58.021Z,1.00
2023-04-22T14:47:27.153Z,1.00
2023-04-22T14:50:13.323Z,0.90
2023-04-22T14:52:44.080Z,0.95
2023-04-22T14:55:22.690Z,1.02
2023-04-22T14:57:57.624Z,1.08
2023-04-22T15:00:27.898Z,1.60
2023-04-22T15:02:57.794Z,1.65
2023-04-22T15:05:49.412Z,1.80
2023-04-22T15:08:19.853Z,1.70
2023-04-22T15:11:06.529Z,2.08
2023-04-22T15:13:36.487Z,1.58
2023-04-22T15:16:05.571Z,2.15
2023-04-22T15:18:34.751Z,1.98
2023-04-22T15:21:05.887Z,1.83
2023-04-22T15:23:36.421Z,1.83
2023-04-22T15:26:05.599Z,2.13
2023-04-22T15:28:35.875Z,1.85
2023-04-22T15:31:05.144Z,2.80
2023-04-22T15:33:34.200Z,2.20
2023-04-22T15:36:04.348Z,1.80
2023-04-22T15:38:33.354Z,1.83
2023-04-22T15:41:08.487Z,1.95
2023-04-22T15:43:37.543Z,2.05
2023-04-22T15:46:08.612Z,2.90
2023-04-22T15:48:38.123Z,2.38
2023-04-22T15:51:07.465Z,2.85
2023-04-22T15:53:36.473Z,2.47
2023-04-22T15:56:07.380Z,1.88
2023-04-22T15:58:36.679Z,1.95
2023-04-22T16:01:17.981Z,1.95
2023-04-22T16:03:49.374Z,2.20
2023-04-22T16:06:19.190Z,2.83
2023-04-22T16:08:48.234Z,2.88
2023-04-22T16:11:18.797Z,3.10
2023-04-22T16:13:48.309Z,2.92
2023-04-22T16:16:36.193Z,2.70
2023-04-22T16:19:05.321Z,2.22
2023-04-22T16:21:34.897Z,3.00
2023-04-22T16:24:04.830Z,2.75
2023-04-22T16:26:35.575Z,2.50
2023-04-22T16:29:08.644Z,3.55
2023-04-22T16:31:38.829Z,3.17
2023-04-22T16:34:08.153Z,3.03
2023-04-22T16:36:37.438Z,3.00
2023-04-22T16:39:07.073Z,3.15
2023-04-22T16:41:37.643Z,2.72
2023-04-22T16:44:25.136Z,3.15
2023-04-22T16:46:54.148Z,3.45
2023-04-22T16:49:23.313Z,2.25
2023-04-22T16:51:52.708Z,2.97
2023-04-22T16:54:21.751Z,2.58
2023-04-22T16:56:52.389Z,2.15
2023-04-22T16:59:21.444Z,1.85
2023-04-22T17:01:50.688Z,2.25
2023-04-22T17:04:20.417Z,2.28
2023-04-22T17:06:49.508Z,2.85
2023-04-22T17:09:19.894Z,4.05
2023-04-22T17:11:48.917Z,6.35
2023-04-22T17:14:19.318Z,4.68
2023-04-22T17:16:48.347Z,3.53
2023-04-22T17:19:17.454Z,3.78
2023-04-22T17:21:46.542Z,3.50
2023-04-22T17:24:15.688Z,3.28
2023-04-22T17:26:44.701Z,3.10
2023-04-22T17:29:13.701Z,3.22
2023-04-22T17:31:44.278Z,3.22
2023-04-22T17:34:13.418Z,3.50
2023-04-22T17:36:42.572Z,2.88
2023-04-22T17:39:11.934Z,2.95
2023-04-22T17:41:41.388Z,2.45
2023-04-22T17:44:11.347Z,2.47
2023-04-22T17:46:41.706Z,2.85
2023-04-22T17:49:12.377Z,2.33
2023-04-22T17:51:41.511Z,2.58
2023-04-22T17:54:10.562Z,3.08
2023-04-22T17:56:39.700Z,2.90
2023-04-22T17:59:09.020Z,2.90
2023-04-22T18:01:38.903Z,2.80
2023-04-22T18:04:08.127Z,2.95
2023-04-22T18:06:38.741Z,2.60
2023-04-22T18:09:27.322Z,2.75
2023-04-22T18:11:58.756Z,2.85
2023-04-22T18:14:28.673Z,2.83
2023-04-22T18:16:57.827Z,2.88
2023-04-22T18:19:27.082Z,3.13
2023-04-22T18:22:16.110Z,3.15
2023-04-22T18:24:45.373Z,2.95
2023-04-22T18:27:14.468Z,2.97
2023-04-22T18:29:43.704Z,3.35
2023-04-22T18:32:12.944Z,3.50
2023-04-22T18:34:42.373Z,2.58
2023-04-22T18:37:11.843Z,3.38
2023-04-22T18:39:42.315Z,2.97
2023-04-22T18:42:11.392Z,2.92
2023-04-22T18:44:40.979Z,2.75
2023-04-22T18:47:10.710Z,3.22
2023-04-22T18:49:39.713Z,3.40
2023-04-22T18:52:09.223Z,3.20
2023-04-22T18:54:38.635Z,2.85
2023-04-22T18:57:09.528Z,3.45
2023-04-22T18:59:38.616Z,2.60
2023-04-22T19:02:07.768Z,2.75
2023-04-22T19:04:37.532Z,2.92
2023-04-22T19:07:07.069Z,3.70
2023-04-22T19:09:36.788Z,2.60
2023-04-22T19:12:13.526Z,2.95
2023-04-22T19:14:44.445Z,3.70
2023-04-22T19:17:13.829Z,3.45
2023-04-22T19:19:43.412Z,3.83
2023-04-22T19:22:13.434Z,3.55
2023-04-22T19:24:42.654Z,4.03
2023-04-22T19:27:13.309Z,4.45
2023-04-22T19:29:51.324Z,3.88
2023-04-22T19:32:21.729Z,4.15
2023-04-22T19:34:51.131Z,4.07
2023-04-22T19:37:20.269Z,4.53
2023-04-22T19:39:49.749Z,3.88
2023-04-22T19:42:21.024Z,3.58
2023-04-22T19:44:51.463Z,3.95
2023-04-22T19:47:21.178Z,3.70
2023-04-22T19:49:50.879Z,3.78
2023-04-22T19:52:22.163Z,3.50
2023-04-22T19:54:55.817Z,4.25
2023-04-22T19:57:25.249Z,3.53
2023-04-22T19:59:56.648Z,3.75
2023-04-22T20:02:27.069Z,3.67
2023-04-22T20:04:56.500Z,4.13
2023-04-22T20:07:27.915Z,4.47
2023-04-22T20:09:57.883Z,3.70
2023-04-22T20:12:29.087Z,4.25
2023-04-22T20:15:00.284Z,4.85
2023-04-22T20:17:31.087Z,4.18
2023-04-22T20:20:01.774Z,4.32
2023-04-22T20:22:33.203Z,4.78
2023-04-22T20:25:03.950Z,4.38
2023-04-22T20:27:37.226Z,4.22
2023-04-22T20:30:10.053Z,4.57
2023-04-22T20:32:39.532Z,4.90
2023-04-22T20:35:12.043Z,4.22
2023-04-22T20:37:41.411Z,3.85
2023-04-22T20:40:14.957Z,4.05
2023-04-22T20:42:44.293Z,4.53
2023-04-22T20:45:15.974Z,3.95
2023-04-22T20:47:45.094Z,5.32
2023-04-22T20:50:15.107Z,4.18
2023-04-22T20:52:44.583Z,4.75
2023-04-22T20:55:13.588Z,4.45
2023-04-22T20:57:42.619Z,3.80
2023-04-22T21:00:12.465Z,3.42
2023-04-22T21:02:49.614Z,4.25
2023-04-22T21:05:19.215Z,4.32
2023-04-22T21:07:52.656Z,4.57
2023-04-22T21:10:22.904Z,5.22
2023-04-22T21:12:52.736Z,4.07
2023-04-22T21:15:22.344Z,3.90
2023-04-22T21:17:56.664Z,4.75
2023-04-22T21:20:27.250Z,4.63
2023-04-22T21:22:59.762Z,4.10
2023-04-22T21:25:31.176Z,4.88
2023-04-22T21:28:00.859Z,4.05
2023-04-22T21:30:30.682Z,4.07
2023-04-22T21:33:01.064Z,5.63
2023-04-22T21:35:30.225Z,4.65
2023-04-22T21:37:59.449Z,4.43
2023-04-22T21:40:28.781Z,4.43
2023-04-22T21:42:57.725Z,6.43
2023-04-22T21:45:26.684Z,5.68
2023-04-22T21:47:55.994Z,6.47
2023-04-22T21:50:26.641Z,6.15
2023-04-22T21:52:55.796Z,5.90
2023-04-22T21:55:24.792Z,5.38
2023-04-22T21:57:53.982Z,4.90
2023-04-22T22:00:25.109Z,4.93
2023-04-22T22:02:54.517Z,4.28
2023-04-22T22:05:23.619Z,4.35
2023-04-22T22:07:55.401Z,4.35
2023-04-22T22:10:25.402Z,4.97
2023-04-22T22:12:54.366Z,4.70
2023-04-22T22:15:23.561Z,4.38
2023-04-22T22:17:52.554Z,4.55
2023-04-22T22:20:21.530Z,4.18
2023-04-22T22:22:50.937Z,4.40
2023-04-22T22:25:21.248Z,4.82
2023-04-22T22:27:50.247Z,4.50
2023-04-22T22:30:21.783Z,5.00
2023-04-22T22:32:51.248Z,4.40
2023-04-22T22:35:21.060Z,5.13
2023-04-22T22:37:50.123Z,4.88
2023-04-22T22:40:20.577Z,3.90
2023-04-22T22:42:50.270Z,4.15
2023-04-22T22:45:19.263Z,3.83
2023-04-22T22:47:48.411Z,5.32
2023-04-22T22:50:17.486Z,4.38
2023-04-22T22:52:46.461Z,5.70
2023-04-22T22:55:15.573Z,5.35
2023-04-22T22:57:45.932Z,4.25
2023-04-22T23:00:15.886Z,5.43
2023-04-22T23:02:45.044Z,5.95
2023-04-22T23:05:14.221Z,5.53
2023-04-22T23:07:43.180Z,5.60
2023-04-22T23:10:12.368Z,4.75
2023-04-22T23:12:41.345Z,4.03
2023-04-22T23:15:12.770Z,3.95
2023-04-22T23:17:42.019Z,3.88
2023-04-22T23:20:12.216Z,4.38
2023-04-22T23:22:41.635Z,4.13
2023-04-22T23:25:12.078Z,5.45
2023-04-22T23:27:42.690Z,6.53
2023-04-22T23:30:14.115Z,8.55
2023-04-22T23:32:44.789Z,5.82
2023-04-22T23:35:15.154Z,5.85
2023-04-22T23:37:45.895Z,4.90
2023-04-22T23:40:15.269Z,6.35
2023-04-22T23:42:44.272Z,6.03
2023-04-22T23:45:14.807Z,5.80
2023-04-22T23:47:43.847Z,4.93
2023-04-22T23:50:14.208Z,6.30
2023-04-22T23:52:43.269Z,6.45
2023-04-22T23:55:14.167Z,6.78
2023-04-22T23:57:43.894Z,5.30
